AirNav   Duncan Aviation - Near you to keep you flying
 
 1002 users online  

IS57 Wind Rose Farm Airport
Marengo, Illinois, USA

GOING TO MARENGO?


FAA INFORMATION EFFECTIVE 03 NOVEMBER 2022

Location

FAA Identifier: IS57
Lat/Long: 42-10-47.0840N 088-37-58.0000W
42-10.784733N 088-37.966667W
42.1797456,-88.6327778
(estimated)
Elevation: 815 ft. / 248 m (estimated)
Variation: 00W (1985)
From city: 4 miles SW of MARENGO, IL
Time zone: UTC -6 (UTC -5 during Daylight Saving Time)
Zip code: 60152

Airport Operations

Airport use: Private use. Permission required prior to landing
Activation date: 08/1980
Control tower: no
ARTCC: CHICAGO CENTER
FSS: KANKAKEE FLIGHT SERVICE STATION
Attendance: UNATNDD
Wind indicator: yes
Segmented circle: no

Airport Communications

WX AWOS-3 at DKB (15 nm S): 119.075 (815-748-2350)

Nearby radio navigation aids

VOR radial/distance  VOR name  Freq  Var
DPAr322/21.4DUPAGE VOR/DME108.4002E
OBKr267/30.4NORTHBROOK VOR/DME113.0002W
JVLr134/30.9JANESVILLE VOR/DME114.3003E

Airport Services

Runway Information

Runway 9/27

Dimensions: 2600 x 70 ft. / 792 x 21 m
Surface: turf
RUNWAY 9  RUNWAY 27
Traffic pattern: rightleft
Obstructions: none25 ft. pline

Airport Ownership and Management from official FAA records

Ownership: Privately-owned
Owner: CENTURY POINT APARTMENTS, LLC
PO BOX 182
BARRINGTON, IL 60011
Phone 847-707-3421
Manager: JIM ORIGER CENTURY POINT APTS, LLC
PO BOX 182
BARRINGTON, IL 60011
Phone 847-707-3421

Airport Operational Statistics

Aircraft based on the field: 2
Single engine airplanes: 2
    

Additional Remarks

FOR CD CTC CHICAGO APCH AT 847-289-0926.

Instrument Procedures

There are no published instrument procedures at IS57.

Some nearby airports with instrument procedures:

C77 - Poplar Grove Airport (12 nm NW)
3CK - Lake in the Hills Airport (14 nm E)
KDKB - De Kalb Taylor Municipal Airport (15 nm S)
10C - Galt Field Airport (18 nm NE)
KRFD - Chicago/Rockford International Airport (21 nm W)
 
Loc | Ops | Rwys | IFR | FBO | Links
Com | Nav | Svcs | Stats | Notes
Area around IS57 (Wind Rose Farm Airport)
 
Road maps at: MapQuest Bing Google
 
Aerial photo
No photo
 
Sectional chart

 
Airport distance calculator
Flying to Wind Rose Farm Airport? Find the distance to fly.

From to IS57

Sunrise and sunset
Times for 29-Nov-2022
 Local
(UTC-6)
 Zulu
(UTC)
Morning civil twilight06:3112:31
Sunrise07:0213:02
Sunset16:2322:23
Evening civil twilight16:5422:54

Current date and time
Zulu (UTC)  30-Nov-2022 00:43:55
Local (UTC-6)  29-Nov-2022 18:43:55
 
METAR
KDKB 
15nm S 
300015Z AUTO 18018G24KT 7SM RA BKN016 BKN020 OVC024 12/12 A2946 RMK AO2 P0001 T01210117
KRFD 
21nm W 
292354Z 17017G27KT 10SM SCT043 BKN055 BKN110 13/11 A2942 RMK AO2 PK WND 17027/2354 LTG DSNT NW SLP964 T01280106 10128 20089 58017 $
KDPA 
23nm SE 
292352Z 18019G32KT 10SM BKN018 OVC028 14/11 A2946 RMK AO2 PK WND 17033/2258 SLP976 T01440106 10144 20128 58011
KARR 
26nm S 
292352Z 17014G21KT 8SM OVC016 13/11 A2946 RMK AO2 SLP976 T01280111 10133 20117 58014
KRPJ 
26nm SW 
300015Z AUTO 18019G28KT 10SM SCT025 SCT035 SCT041 12/12 A2944 RMK AO2 T01230123 TSNO
K06C 
26nm SE 
300015Z AUTO 19014G22KT 10SM BKN016 BKN022 OVC031 14/13 A2946 RMK AO2 T01400129
TAF
KRFD 
21nm W 
292035Z 2921/3018 18015G25KT P6SM OVC020 TEMPO 2922/3001 5SM -SHRA OVC010 FM300100 28019G31KT P6SM OVC017 FM300800 28019G31KT P6SM BKN035
KDPA 
23nm SE 
292034Z 2921/3018 18020G33KT P6SM BKN025 TEMPO 3000/3002 25020G35KT 3SM SHRA BR FM300300 27019G31KT P6SM OVC017 FM301000 28019G31KT P6SM BKN035
NOTAMs
Click for the latest NOTAMs
NOTAMs are issued by the DoD/FAA and will open in a separate window not controlled by AirNav.

 

 
 

Would you like to see your business listed on this page?

 If your business provides an interesting product or service to pilots, flight crews, aircraft, or users of the Wind Rose Farm Airport, you should consider listing it here.  To start the listing process, click on the button below
 
Add a business
 

Other Pages about Wind Rose Farm Airport

Update a link
 
Copyright © AirNav, LLC. All rights reserved. Privacy Policy  Contact